createdAt,value
2018-12-15T17:42:33.741Z,15.75
2018-12-15T17:45:01.874Z,14.31
2018-12-15T17:50:02.083Z,13.03
2018-12-15T17:54:24.179Z,12.45
2018-12-15T17:59:25.895Z,10.86
2018-12-15T18:04:25.762Z,9.89
2018-12-15T18:09:35.491Z,9.40
2018-12-15T18:14:45.274Z,8.92
2018-12-15T18:19:54.495Z,9.11
2018-12-15T18:25:04.019Z,9.29
2018-12-15T18:30:13.272Z,8.34
2018-12-15T18:35:22.709Z,8.14
2018-12-15T18:40:31.932Z,8.34
2018-12-15T18:45:41.537Z,7.37
2018-12-15T18:50:50.763Z,8.46
2018-12-15T18:56:00.266Z,7.96
2018-12-15T19:01:12.499Z,7.25
2018-12-15T19:06:12.430Z,7.09
2018-12-15T19:11:22.190Z,7.25
2018-12-15T19:16:31.899Z,6.22
2018-12-15T19:21:41.761Z,6.46
2018-12-15T19:26:50.983Z,6.19
2018-12-15T19:32:02.813Z,6.04
2018-12-15T19:37:01.780Z,5.84
2018-12-15T19:42:11.723Z,5.99
2018-12-15T19:47:21.345Z,5.26
2018-12-15T19:52:30.842Z,5.37
2018-12-15T19:57:40.088Z,5.07
2018-12-15T20:02:48.078Z,4.85
2018-12-15T20:07:57.342Z,4.75
2018-12-15T20:13:06.688Z,4.74
2018-12-15T20:18:15.920Z,4.47
2018-12-15T20:23:25.172Z,4.48
2018-12-15T20:28:34.387Z,4.29
2018-12-15T20:33:43.804Z,4.47
2018-12-15T20:38:53.015Z,4.27
2018-12-15T20:44:02.335Z,4.41
2018-12-15T20:49:11.583Z,4.36
2018-12-15T20:54:20.982Z,3.67
2018-12-15T20:59:30.228Z,4.09
2018-12-15T21:04:39.654Z,4.27
2018-12-15T21:09:48.883Z,4.56
2018-12-15T21:14:58.239Z,4.78
2018-12-15T21:20:07.684Z,4.78
2018-12-15T21:25:17.030Z,4.75
2018-12-15T21:30:26.308Z,4.52
2018-12-15T21:35:35.970Z,4.52
2018-12-15T21:40:48.255Z,4.44
2018-12-15T21:45:47.569Z,4.05
2018-12-15T21:49:52.231Z,4.23
2018-12-15T21:54:51.474Z,4.03
2018-12-15T22:00:00.893Z,4.37
2018-12-15T22:05:10.096Z,3.95
2018-12-15T22:10:19.451Z,4.07
2018-12-15T22:15:28.685Z,4.04
2018-12-15T22:20:37.968Z,3.69
2018-12-15T22:25:47.198Z,3.92
2018-12-15T22:30:56.494Z,3.86
2018-12-15T22:36:05.732Z,3.98
2018-12-15T22:41:15.090Z,4.00
2018-12-15T22:46:24.321Z,4.18
2018-12-15T22:51:35.015Z,3.85
2018-12-15T22:57:01.919Z,3.94
2018-12-15T23:02:11.102Z,3.94
2018-12-15T23:07:20.391Z,3.64
2018-12-15T23:12:29.672Z,3.46
2018-12-15T23:17:38.936Z,3.66
2018-12-15T23:22:48.218Z,3.80
2018-12-15T23:27:57.431Z,3.63
2018-12-15T23:33:06.675Z,3.52
2018-12-15T23:38:15.895Z,3.29
2018-12-15T23:43:25.387Z,3.42
2018-12-15T23:48:34.614Z,3.39
2018-12-15T23:53:43.963Z,3.53
2018-12-15T23:58:53.174Z,3.44
